Time;durP1;ratioP1;P1;durP2;ratioP2;P2;SDS_P1;SDS_P2;PMS_P1;PMS_P2;Temp;Humidity;BMP_temperature;BMP_pressure;BME280_temperature;BME280_humidity;BME280_pressure;Samples;Min_cycle;Max_cycle;Signal;HPM_P1;HPM_P2
2021/09/12 00:00:32;;;;;;;13.07;7.07;;;;;;;;;;4946024;28;20460;-80
2021/09/12 00:02:59;;;;;;;12.30;6.70;;;;;;;;;;4961334;28;20054;-79
2021/09/12 00:05:28;;;;;;;12.15;6.38;;;;;;;;;;4955597;28;20081;-80
2021/09/12 00:07:55;;;;;;;12.60;6.45;;;;;;;;;;4955803;28;20066;-80
2021/09/12 00:10:23;;;;;;;16.38;6.80;;;;;;;;;;4955037;28;20031;-80
2021/09/12 00:13:10;;;;;;;17.65;6.38;;;;;;;;;;4961674;28;20097;-80
2021/09/12 00:15:38;;;;;;;;;;;;;;;;;;4936189;28;20429;-80
2021/09/12 00:18:07;;;;;;;15.77;7.72;;;;;;;;;;4941305;28;20046;-80
2021/09/12 00:20:35;;;;;;;11.98;7.03;;;;;;;;;;4935313;28;20530;-81
2021/09/12 00:23:05;;;;;;;13.30;7.00;;;;;;;;;;4924808;28;20039;-79
2021/09/12 00:25:32;;;;;;;15.48;7.20;;;;;;;;;;4923693;28;20027;-79
2021/09/12 00:27:59;;;;;;;13.70;6.75;;;;;;;;;;4913469;28;20122;-80
2021/09/12 00:30:26;;;;;;;12.90;7.22;;;;;;;;;;4935324;28;20066;-80
2021/09/12 00:32:54;;;;;;;13.57;7.78;;;;;;;;;;4954798;28;20051;-80
2021/09/12 00:35:21;;;;;;;14.68;8.65;;;;;;;;;;4931548;28;20046;-80
2021/09/12 00:37:50;;;;;;;12.27;7.50;;;;;;;;;;4941253;28;20609;-80
2021/09/12 00:40:42;;;;;;;12.65;7.13;;;;;;;;;;4936881;28;20042;-80
2021/09/12 00:43:10;;;;;;;16.13;8.40;;;;;;;;;;4933905;28;20049;-80
2021/09/12 00:45:37;;;;;;;14.05;7.82;;;;;;;;;;4929763;28;20051;-80
2021/09/12 00:48:07;;;;;;;13.20;7.93;;;;;;;;;;4929422;28;20043;-80
2021/09/12 00:50:36;;;;;;;12.52;7.05;;;;;;;;;;4937130;28;20727;-81
2021/09/12 00:53:04;;;;;;;15.18;7.63;;;;;;;;;;4939742;28;20042;-81
2021/09/12 00:55:33;;;;;;;14.98;8.02;;;;;;;;;;4951460;28;20184;-81
2021/09/12 00:58:00;;;;;;;15.35;7.05;;;;;;;;;;4939749;28;20035;-81
2021/09/12 01:00:30;;;;;;;11.27;6.10;;;;;;;;;;4954566;28;20069;-80
2021/09/12 01:02:59;;;;;;;14.25;7.68;;;;;;;;;;4955122;28;20034;-80
2021/09/12 01:05:29;;;;;;;14.45;7.35;;;;;;;;;;4953399;28;20054;-81
2021/09/12 01:07:57;;;;;;;26.05;8.35;;;;;;;;;;4960238;28;20133;-81
2021/09/12 01:10:25;;;;;;;12.48;6.85;;;;;;;;;;4952351;28;20038;-80
2021/09/12 01:12:54;;;;;;;12.13;6.55;;;;;;;;;;4960317;28;20133;-82
2021/09/12 01:15:23;;;;;;;14.63;7.78;;;;;;;;;;4957136;28;20337;-82
2021/09/12 01:17:53;;;;;;;11.82;6.72;;;;;;;;;;4956351;28;20011;-82
2021/09/12 01:20:20;;;;;;;12.10;7.05;;;;;;;;;;4978946;28;20124;-81
2021/09/12 01:22:49;;;;;;;19.58;8.45;;;;;;;;;;4958287;28;20089;-81
2021/09/12 01:25:18;;;;;;;17.60;7.15;;;;;;;;;;4968013;28;20030;-80
2021/09/12 01:27:46;;;;;;;15.60;7.07;;;;;;;;;;4963508;28;20034;-80
2021/09/12 01:30:13;;;;;;;12.90;7.03;;;;;;;;;;4959484;28;20031;-80
2021/09/12 01:32:40;;;;;;;11.73;6.35;;;;;;;;;;4957616;28;20591;-80
2021/09/12 01:35:11;;;;;;;15.32;7.10;;;;;;;;;;4964292;28;20037;-81
2021/09/12 01:37:39;;;;;;;13.32;6.03;;;;;;;;;;4942573;28;20043;-81
2021/09/12 01:40:09;;;;;;;11.30;5.80;;;;;;;;;;4946595;28;20550;-81
2021/09/12 01:42:45;;;;;;;16.27;6.85;;;;;;;;;;4958600;28;20640;-81
2021/09/12 01:45:12;;;;;;;;;;;;;;;;;;4959819;28;20042;-81
2021/09/12 01:47:45;;;;;;;12.48;6.15;;;;;;;;;;4946446;28;19925;-82
2021/09/12 01:50:16;;;;;;;15.85;6.10;;;;;;;;;;4942905;28;20058;-81
2021/09/12 01:53:05;;;;;;;14.45;6.60;;;;;;;;;;4951168;28;20117;-81
2021/09/12 01:55:32;;;;;;;13.98;6.28;;;;;;;;;;4958150;28;20045;-82
2021/09/12 01:58:00;;;;;;;12.35;6.95;;;;;;;;;;4956690;28;20050;-82
2021/09/12 02:00:32;;;;;;;15.43;6.18;;;;;;;;;;4934541;28;20138;-82
2021/09/12 02:03:01;;;;;;;16.55;7.03;;;;;;;;;;4974855;28;20042;-81
2021/09/12 02:05:28;;;;;;;12.52;5.85;;;;;;;;;;4969793;28;20806;-81
2021/09/12 02:07:57;;;;;;;17.35;7.18;;;;;;;;;;4972299;28;20031;-81
2021/09/12 02:10:26;;;;;;;15.60;6.82;;;;;;;;;;4988725;28;20047;-81
2021/09/12 02:12:55;;;;;;;11.02;5.60;;;;;;;;;;4980220;28;20026;-81
2021/09/12 02:15:24;;;;;;;14.98;6.40;;;;;;;;;;4958171;28;20030;-82
2021/09/12 02:17:52;;;;;;;10.18;5.85;;;;;;;;;;4961541;28;20038;-81
2021/09/12 02:20:21;;;;;;;12.57;6.28;;;;;;;;;;4954358;28;20039;-82
2021/09/12 02:22:49;;;;;;;13.23;5.97;;;;;;;;;;4962502;28;20101;-82
2021/09/12 02:25:16;;;;;;;10.85;6.63;;;;;;;;;;4957220;28;20066;-82
2021/09/12 02:27:44;;;;;;;11.80;5.72;;;;;;;;;;4956557;28;20156;-82
2021/09/12 02:30:12;;;;;;;15.38;5.93;;;;;;;;;;4957989;28;20026;-82
2021/09/12 02:32:40;;;;;;;11.27;5.82;;;;;;;;;;4957507;28;20395;-82
2021/09/12 02:35:09;;;;;;;13.00;5.32;;;;;;;;;;4960302;28;20562;-81
2021/09/12 02:37:36;;;;;;;10.27;5.20;;;;;;;;;;4954212;28;20197;-82
2021/09/12 02:40:05;;;;;;;13.35;5.05;;;;;;;;;;4958131;28;20042;-81
2021/09/12 02:42:33;;;;;;;16.10;5.13;;;;;;;;;;4952956;28;21314;-81
2021/09/12 02:45:02;;;;;;;11.40;5.35;;;;;;;;;;4958710;28;20027;-81
2021/09/12 02:47:40;;;;;;;11.40;5.00;;;;;;;;;;4953296;28;20066;-80
2021/09/12 02:50:17;;;;;;;9.52;5.03;;;;;;;;;;4955180;28;20089;-80
2021/09/12 02:52:46;;;;;;;12.10;5.90;;;;;;;;;;4959292;28;20134;-81
2021/09/12 02:55:12;;;;;;;10.55;5.28;;;;;;;;;;4989527;28;20034;-81
2021/09/12 02:57:40;;;;;;;12.30;5.22;;;;;;;;;;4974803;28;20049;-81
2021/09/12 03:00:08;;;;;;;11.45;5.03;;;;;;;;;;4959296;28;20073;-81
2021/09/12 03:02:35;;;;;;;13.90;5.32;;;;;;;;;;4959628;28;20034;-80
2021/09/12 03:05:03;;;;;;;12.18;4.72;;;;;;;;;;4962557;28;20046;-81
2021/09/12 03:07:32;;;;;;;10.77;4.10;;;;;;;;;;4953854;28;20035;-81
2021/09/12 03:10:03;;;;;;;15.88;5.18;;;;;;;;;;4978421;28;20121;-81
2021/09/12 03:12:30;;;;;;;12.27;4.55;;;;;;;;;;4952386;28;20073;-81
2021/09/12 03:15:00;;;;;;;11.07;4.93;;;;;;;;;;4987222;28;20440;-80
2021/09/12 03:17:27;;;;;;;10.18;4.68;;;;;;;;;;4968990;28;20065;-80
2021/09/12 03:19:54;;;;;;;10.82;5.25;;;;;;;;;;4953881;28;20133;-80
2021/09/12 03:22:22;;;;;;;11.02;4.85;;;;;;;;;;4956740;28;20034;-80
2021/09/12 03:24:50;;;;;;;12.88;5.50;;;;;;;;;;4959841;28;20046;-81
2021/09/12 03:27:17;;;;;;;16.40;5.22;;;;;;;;;;4957975;28;20038;-81
2021/09/12 03:29:44;;;;;;;10.95;5.15;;;;;;;;;;4963095;28;20041;-80
2021/09/12 03:32:13;;;;;;;12.57;5.78;;;;;;;;;;4963964;28;20660;-80
2021/09/12 03:34:40;;;;;;;12.70;6.05;;;;;;;;;;4960637;28;20053;-80
2021/09/12 03:37:08;;;;;;;15.27;6.85;;;;;;;;;;4963844;28;20042;-80
2021/09/12 03:39:35;;;;;;;13.57;6.03;;;;;;;;;;4959195;28;20614;-81
2021/09/12 03:42:03;;;;;;;11.85;5.68;;;;;;;;;;4946021;28;20488;-80
2021/09/12 03:44:30;;;;;;;16.58;5.70;;;;;;;;;;4965116;28;20049;-80
2021/09/12 03:46:58;;;;;;;13.02;5.70;;;;;;;;;;4958209;28;20085;-80
2021/09/12 03:49:26;;;;;;;10.80;5.28;;;;;;;;;;4941633;28;20039;-81
2021/09/12 03:51:54;;;;;;;12.32;6.38;;;;;;;;;;4962606;28;20608;-81
2021/09/12 03:54:24;;;;;;;10.35;6.03;;;;;;;;;;4954938;28;20716;-80
2021/09/12 03:56:52;;;;;;;12.23;5.68;;;;;;;;;;4963596;28;20044;-80
2021/09/12 03:59:20;;;;;;;13.57;6.20;;;;;;;;;;4943952;28;20049;-81
2021/09/12 04:01:47;;;;;;;11.52;5.35;;;;;;;;;;4952033;28;20125;-81
2021/09/12 04:04:15;;;;;;;13.10;6.45;;;;;;;;;;4959551;28;20046;-80
2021/09/12 04:06:43;;;;;;;14.50;6.53;;;;;;;;;;4960299;28;20125;-80
2021/09/12 04:09:11;;;;;;;10.27;5.50;;;;;;;;;;4959633;28;20813;-81
2021/09/12 04:11:43;;;;;;;12.13;6.00;;;;;;;;;;4957842;28;20034;-80
2021/09/12 04:14:12;;;;;;;14.70;5.53;;;;;;;;;;4957258;28;20042;-80
2021/09/12 04:16:43;;;;;;;11.32;5.70;;;;;;;;;;4960984;28;20038;-80
2021/09/12 04:19:11;;;;;;;10.82;5.43;;;;;;;;;;4963087;28;20126;-80
2021/09/12 04:21:39;;;;;;;12.07;6.30;;;;;;;;;;4955436;28;20054;-80
2021/09/12 04:24:07;;;;;;;10.77;5.47;;;;;;;;;;4955845;28;20081;-80
2021/09/12 04:26:36;;;;;;;13.73;6.15;;;;;;;;;;4958077;28;20108;-80
2021/09/12 04:29:04;;;;;;;14.00;6.32;;;;;;;;;;4960834;28;20121;-83
2021/09/12 04:31:32;;;;;;;14.55;6.22;;;;;;;;;;4956385;28;20046;-82
2021/09/12 04:34:00;;;;;;;12.07;5.55;;;;;;;;;;4953581;28;20034;-83
2021/09/12 04:36:26;;;;;;;10.70;5.25;;;;;;;;;;4935526;28;20099;-83
2021/09/12 04:38:53;;;;;;;14.25;5.38;;;;;;;;;;4942513;28;20043;-81
2021/09/12 04:41:22;;;;;;;11.52;5.53;;;;;;;;;;4949381;28;20045;-81
2021/09/12 04:43:50;;;;;;;13.32;5.97;;;;;;;;;;4929988;28;20062;-80
2021/09/12 04:46:17;;;;;;;11.02;4.93;;;;;;;;;;4945247;28;20062;-81
2021/09/12 04:48:44;;;;;;;11.13;5.72;;;;;;;;;;4934049;28;20041;-83
2021/09/12 04:51:15;;;;;;;9.95;5.65;;;;;;;;;;4966687;28;20803;-81
2021/09/12 04:53:44;;;;;;;13.02;6.53;;;;;;;;;;4984663;28;20062;-81
2021/09/12 04:56:12;;;;;;;10.77;5.65;;;;;;;;;;4971898;28;20041;-81
2021/09/12 04:58:42;;;;;;;17.27;5.90;;;;;;;;;;4954432;28;20042;-81
2021/09/12 05:01:11;;;;;;;11.68;5.63;;;;;;;;;;4954479;28;20109;-81
2021/09/12 05:03:39;;;;;;;11.40;6.00;;;;;;;;;;4927130;28;20050;-81
2021/09/12 05:06:10;;;;;;;10.85;5.45;;;;;;;;;;4963916;28;20026;-81
2021/09/12 05:08:37;;;;;;;9.35;5.00;;;;;;;;;;4939200;28;20618;-81
2021/09/12 05:11:05;;;;;;;10.50;4.97;;;;;;;;;;4964143;28;20030;-81
2021/09/12 05:13:32;;;;;;;12.48;5.78;;;;;;;;;;4932816;28;20487;-81
2021/09/12 05:16:00;;;;;;;12.65;6.30;;;;;;;;;;4957246;28;20038;-80
2021/09/12 05:18:28;;;;;;;12.63;5.45;;;;;;;;;;4955184;28;20050;-81
2021/09/12 05:20:58;;;;;;;15.27;5.82;;;;;;;;;;4962812;28;20038;-80
2021/09/12 05:23:24;;;;;;;15.38;5.35;;;;;;;;;;4985450;28;20066;-81
2021/09/12 05:25:52;;;;;;;14.80;5.53;;;;;;;;;;4957507;28;21172;-81
2021/09/12 05:28:20;;;;;;;14.30;6.10;;;;;;;;;;4956021;28;20034;-81
2021/09/12 05:30:47;;;;;;;12.55;5.25;;;;;;;;;;4962086;28;20046;-81
2021/09/12 05:33:15;;;;;;;10.10;5.15;;;;;;;;;;4966057;28;20738;-80
2021/09/12 05:35:42;;;;;;;10.13;6.00;;;;;;;;;;4965600;28;20045;-84
2021/09/12 05:38:10;;;;;;;10.63;5.45;;;;;;;;;;4963733;28;20034;-81
2021/09/12 05:40:39;;;;;;;9.10;4.65;;;;;;;;;;4946178;28;20120;-83
2021/09/12 05:43:16;;;;;;;12.43;5.30;;;;;;;;;;4964937;28;20503;-82
2021/09/12 05:45:43;;;;;;;11.10;5.63;;;;;;;;;;4960244;28;20034;-81
2021/09/12 05:48:11;;;;;;;10.95;5.47;;;;;;;;;;4957870;28;20105;-80
2021/09/12 05:50:38;;;;;;;15.57;5.97;;;;;;;;;;4966122;28;20098;-80
2021/09/12 05:53:09;;;;;;;13.27;6.05;;;;;;;;;;4941864;28;20101;-81
2021/09/12 05:55:40;;;;;;;10.95;5.90;;;;;;;;;;4941561;28;20907;-84
2021/09/12 05:58:06;;;;;;;10.95;5.63;;;;;;;;;;4956510;28;20049;-81
2021/09/12 06:00:34;;;;;;;15.00;6.22;;;;;;;;;;4956428;28;20081;-81
2021/09/12 06:03:05;;;;;;;11.43;5.20;;;;;;;;;;4956371;28;20034;-81
2021/09/12 06:05:35;;;;;;;10.45;4.78;;;;;;;;;;4934147;28;20046;-80
2021/09/12 06:08:06;;;;;;;10.00;5.25;;;;;;;;;;4956499;28;20046;-81
2021/09/12 06:10:33;;;;;;;13.13;5.95;;;;;;;;;;4965213;28;20043;-80
2021/09/12 06:13:01;;;;;;;15.45;5.65;;;;;;;;;;4957231;28;20038;-80
2021/09/12 06:15:28;;;;;;;16.92;6.10;;;;;;;;;;4951273;28;20963;-81
2021/09/12 06:17:56;;;;;;;13.20;5.18;;;;;;;;;;4954854;28;20482;-80
2021/09/12 06:20:24;;;;;;;12.82;5.18;;;;;;;;;;4957184;28;21119;-80
2021/09/12 06:22:53;;;;;;;8.70;4.47;;;;;;;;;;4953839;28;20038;-81
2021/09/12 06:25:23;;;;;;;12.75;4.70;;;;;;;;;;4951827;28;20035;-81
2021/09/12 06:27:50;;;;;;;12.25;5.15;;;;;;;;;;4957784;28;20097;-80
2021/09/12 06:30:18;;;;;;;11.98;4.65;;;;;;;;;;4950693;28;20463;-81
2021/09/12 06:32:51;;;;;;;11.93;4.30;;;;;;;;;;4958749;28;20470;-80
2021/09/12 06:35:23;;;;;;;16.88;4.70;;;;;;;;;;4957040;28;20153;-81
2021/09/12 06:37:51;;;;;;;11.35;5.47;;;;;;;;;;4956229;28;20175;-81
2021/09/12 06:40:19;;;;;;;10.07;4.82;;;;;;;;;;4959011;28;20294;-81
2021/09/12 06:42:46;;;;;;;10.77;4.88;;;;;;;;;;4957621;28;20092;-82
2021/09/12 06:45:15;;;;;;;11.68;4.88;;;;;;;;;;4972612;28;20030;-81
2021/09/12 06:47:44;;;;;;;10.88;5.43;;;;;;;;;;4957981;28;20046;-81
2021/09/12 06:50:11;;;;;;;11.93;5.30;;;;;;;;;;4957836;28;20113;-80
2021/09/12 06:52:41;;;;;;;10.93;4.57;;;;;;;;;;4954310;28;20107;-83
2021/09/12 06:55:08;;;;;;;11.50;5.20;;;;;;;;;;4935307;28;20040;-81
2021/09/12 06:57:37;;;;;;;13.52;5.07;;;;;;;;;;4930286;28;20980;-81
2021/09/12 07:00:06;;;;;;;13.13;4.63;;;;;;;;;;4940872;28;20035;-81
2021/09/12 07:02:36;;;;;;;13.45;5.32;;;;;;;;;;4920512;28;20043;-81
2021/09/12 07:05:05;;;;;;;15.40;7.53;;;;;;;;;;4935223;28;20047;-81
2021/09/12 07:07:32;;;;;;;11.73;6.22;;;;;;;;;;4933148;28;20066;-81
2021/09/12 07:09:59;;;;;;;8.93;4.53;;;;;;;;;;4921134;28;20826;-81
2021/09/12 07:12:27;;;;;;;11.18;5.13;;;;;;;;;;4931625;28;20134;-81
2021/09/12 07:14:55;;;;;;;11.48;4.97;;;;;;;;;;4941406;28;20034;-81
2021/09/12 07:17:22;;;;;;;8.88;4.30;;;;;;;;;;4918756;28;20085;-82
2021/09/12 07:19:50;;;;;;;11.32;4.40;;;;;;;;;;4939558;28;20053;-81
2021/09/12 07:22:20;;;;;;;8.45;3.90;;;;;;;;;;4919465;28;20057;-82
2021/09/12 07:24:47;;;;;;;9.98;3.17;;;;;;;;;;4936606;28;20082;-82
2021/09/12 07:27:14;;;;;;;8.43;2.85;;;;;;;;;;4920352;28;20024;-82
2021/09/12 07:29:44;;;;;;;11.40;2.97;;;;;;;;;;4946720;28;20112;-85
2021/09/12 07:32:15;;;;;;;7.57;2.50;;;;;;;;;;4928908;28;20057;-87
2021/09/12 07:34:43;;;;;;;7.00;2.15;;;;;;;;;;4916375;28;20089;-87
2021/09/12 07:37:11;;;;;;;7.57;2.20;;;;;;;;;;4957630;28;20074;-86
2021/09/12 07:39:44;;;;;;;13.07;2.80;;;;;;;;;;4956092;28;20045;-88
2021/09/12 07:42:12;;;;;;;9.63;2.60;;;;;;;;;;4954515;28;20023;-85
2021/09/12 07:44:50;;;;;;;10.23;2.60;;;;;;;;;;4943785;28;20039;-86
2021/09/12 07:47:18;;;;;;;8.27;2.22;;;;;;;;;;4958379;28;20039;-85
2021/09/12 07:50:06;;;;;;;9.55;2.30;;;;;;;;;;4971551;28;20034;-87
2021/09/12 07:52:55;;;;;;;7.35;2.20;;;;;;;;;;4967525;28;20092;-86
2021/09/12 07:55:22;;;;;;;9.15;2.30;;;;;;;;;;4965055;28;20034;-86
2021/09/12 07:57:54;;;;;;;10.57;2.60;;;;;;;;;;4985312;28;20487;-87
2021/09/12 08:00:35;;;;;;;9.20;2.60;;;;;;;;;;4971508;28;20112;-88
2021/09/12 08:03:03;;;;;;;10.73;2.15;;;;;;;;;;4982439;28;20467;-86
2021/09/12 08:05:32;;;;;;;7.65;2.10;;;;;;;;;;4981139;28;21051;-85
2021/09/12 08:08:13;;;;;;;7.57;2.22;;;;;;;;;;4984816;28;20070;-87
2021/09/12 08:10:45;;;;;;;6.93;1.95;;;;;;;;;;4979934;28;20736;-87
2021/09/12 08:13:20;;;;;;;7.40;2.20;;;;;;;;;;4980931;28;20046;-87
2021/09/12 08:15:50;;;;;;;6.15;1.88;;;;;;;;;;4964941;28;20126;-88
2021/09/12 08:18:19;;;;;;;7.43;2.10;;;;;;;;;;4949835;28;20129;-87
2021/09/12 08:20:48;;;;;;;9.27;2.58;;;;;;;;;;4951637;28;20311;-87
2021/09/12 08:23:15;;;;;;;8.23;2.08;;;;;;;;;;4946708;28;20038;-87
2021/09/12 08:25:41;;;;;;;8.40;2.50;;;;;;;;;;4965528;28;20057;-88
2021/09/12 08:28:10;;;;;;;8.73;2.30;;;;;;;;;;4980404;28;20120;-87
2021/09/12 08:30:39;;;;;;;8.23;2.10;;;;;;;;;;4960372;28;20858;-87
2021/09/12 08:33:15;;;;;;;10.98;2.50;;;;;;;;;;4983031;28;20037;-87
2021/09/12 08:35:45;;;;;;;8.05;2.38;;;;;;;;;;4984799;28;20042;-87
2021/09/12 08:38:14;;;;;;;7.85;2.05;;;;;;;;;;4953367;28;20480;-87
2021/09/12 08:40:43;;;;;;;8.60;2.45;;;;;;;;;;4962168;28;20046;-86
2021/09/12 08:43:12;;;;;;;7.63;2.05;;;;;;;;;;4961691;28;20093;-87
2021/09/12 08:45:40;;;;;;;13.90;2.42;;;;;;;;;;4991569;28;20039;-87
2021/09/12 08:48:10;;;;;;;7.03;2.10;;;;;;;;;;4967426;28;20134;-85
2021/09/12 08:50:37;;;;;;;9.23;2.40;;;;;;;;;;4956634;28;20038;-87
2021/09/12 08:53:04;;;;;;;7.57;2.40;;;;;;;;;;4978925;28;20546;-85
2021/09/12 08:55:33;;;;;;;7.40;2.45;;;;;;;;;;4970021;28;20038;-87
2021/09/12 08:58:05;;;;;;;10.02;2.92;;;;;;;;;;4960180;28;20038;-88
2021/09/12 09:00:34;;;;;;;8.55;2.00;;;;;;;;;;4959107;28;21138;-86
2021/09/12 09:03:04;;;;;;;8.82;2.00;;;;;;;;;;4962892;28;20031;-86
2021/09/12 09:05:35;;;;;;;11.23;2.22;;;;;;;;;;4936914;28;20058;-87
2021/09/12 09:08:11;;;;;;;8.20;2.10;;;;;;;;;;4976985;28;20587;-86
2021/09/12 09:10:42;;;;;;;8.43;2.33;;;;;;;;;;4970647;28;20030;-85
2021/09/12 09:13:29;;;;;;;6.55;2.25;;;;;;;;;;4964190;28;20033;-85
2021/09/12 09:16:04;;;;;;;7.40;2.10;;;;;;;;;;4977380;28;20033;-87
2021/09/12 09:18:34;;;;;;;7.22;1.92;;;;;;;;;;4973349;28;20035;-87
2021/09/12 09:21:24;;;;;;;7.25;1.65;;;;;;;;;;4965377;28;20041;-86
2021/09/12 09:24:29;;;;;;;12.20;2.55;;;;;;;;;;4963556;28;20046;-87
2021/09/12 09:27:03;;;;;;;8.20;2.20;;;;;;;;;;4971804;28;20038;-86
2021/09/12 09:29:36;;;;;;;6.60;2.10;;;;;;;;;;4951150;28;20035;-86
2021/09/12 09:32:27;;;;;;;10.70;2.65;;;;;;;;;;4932415;28;20050;-85
2021/09/12 09:35:02;;;;;;;9.48;2.83;;;;;;;;;;4851911;29;20044;-84
2021/09/12 09:37:38;;;;;;;8.88;2.75;;;;;;;;;;4848095;29;20684;-85
2021/09/12 09:40:13;;;;;;;8.80;3.05;;;;;;;;;;4871888;29;20052;-86
2021/09/12 09:42:53;;;;;;;9.10;3.50;;;;;;;;;;4883381;29;20037;-85
2021/09/12 09:45:24;;;;;;;9.38;3.25;;;;;;;;;;4885996;29;20126;-84
2021/09/12 09:47:53;;;;;;;9.35;3.35;;;;;;;;;;4881699;29;20044;-85
2021/09/12 09:50:22;;;;;;;9.77;3.35;;;;;;;;;;4881697;29;20055;-84
2021/09/12 09:53:00;;;;;;;10.20;2.95;;;;;;;;;;4857976;29;20194;-83
2021/09/12 09:58:39;;;;;;;9.63;3.20;;;;;;;;;;4829881;29;21061;-85
2021/09/12 10:01:06;;;;;;;9.20;3.58;;;;;;;;;;4829710;29;20079;-85
2021/09/12 10:03:39;;;;;;;9.13;2.88;;;;;;;;;;4801599;29;20042;-84
2021/09/12 10:06:06;;;;;;;6.93;2.05;;;;;;;;;;4816425;29;20056;-80
2021/09/12 10:08:45;;;;;;;8.02;2.42;;;;;;;;;;4822114;29;20034;-81
2021/09/12 10:11:18;;;;;;;9.00;3.08;;;;;;;;;;4817712;29;20043;-82
2021/09/12 10:13:48;;;;;;;10.10;3.33;;;;;;;;;;4866796;29;20068;-81
2021/09/12 10:16:19;;;;;;;10.00;3.28;;;;;;;;;;4866266;29;20040;-87
2021/09/12 10:18:51;;;;;;;8.05;2.42;;;;;;;;;;4862562;29;20064;-89
2021/09/12 10:21:23;;;;;;;9.30;2.50;;;;;;;;;;4878431;29;20558;-89
2021/09/12 10:24:05;;;;;;;9.20;3.60;;;;;;;;;;4872010;29;20040;-89
2021/09/12 10:26:34;;;;;;;8.30;2.58;;;;;;;;;;4863927;29;20036;-89
2021/09/12 10:29:02;;;;;;;10.23;3.40;;;;;;;;;;4871691;29;20028;-90
2021/09/12 10:31:35;;;;;;;7.43;2.40;;;;;;;;;;4867019;29;20112;-89
2021/09/12 10:34:16;;;;;;;8.10;2.90;;;;;;;;;;4875486;29;20037;-90
2021/09/12 10:36:45;;;;;;;9.05;2.72;;;;;;;;;;4963925;28;20042;-89
2021/09/12 10:39:21;;;;;;;7.05;2.25;;;;;;;;;;4973922;28;20038;-89
2021/09/12 10:42:08;;;;;;;9.18;2.88;;;;;;;;;;4965927;28;20391;-87
2021/09/12 10:44:37;;;;;;;9.15;1.88;;;;;;;;;;4961961;28;20100;-87
2021/09/12 10:47:14;;;;;;;7.25;2.20;;;;;;;;;;4977229;28;20613;-87
2021/09/12 10:49:44;;;;;;;7.35;2.35;;;;;;;;;;4980087;28;20050;-90
2021/09/12 10:52:30;;;;;;;7.68;1.80;;;;;;;;;;4961147;28;20035;-89
2021/09/12 10:55:10;;;;;;;7.63;3.53;;;;;;;;;;4956327;28;20461;-88
2021/09/12 10:57:39;;;;;;;10.55;5.95;;;;;;;;;;4962339;28;20069;-87
2021/09/12 11:00:11;;;;;;;10.55;5.03;;;;;;;;;;4962847;28;20041;-90
2021/09/12 11:02:42;;;;;;;9.88;5.70;;;;;;;;;;4959405;28;20065;-89
2021/09/12 11:05:29;;;;;;;10.48;5.28;;;;;;;;;;4984808;28;20045;-90
2021/09/12 11:08:07;;;;;;;9.32;3.90;;;;;;;;;;4962643;28;20093;-89
2021/09/12 11:10:44;;;;;;;11.00;5.18;;;;;;;;;;4961123;28;20042;-90
2021/09/12 11:13:13;;;;;;;8.40;3.83;;;;;;;;;;4969647;28;20045;-89
2021/09/12 11:15:44;;;;;;;9.52;3.83;;;;;;;;;;4967101;28;20488;-90
2021/09/12 11:18:12;;;;;;;10.70;6.82;;;;;;;;;;4990411;28;20041;-90
2021/09/12 11:20:44;;;;;;;6.82;2.00;;;;;;;;;;4985141;28;20054;-89
2021/09/12 11:23:28;;;;;;;7.05;2.47;;;;;;;;;;4981913;28;20041;-90
2021/09/12 11:25:58;;;;;;;7.88;2.95;;;;;;;;;;4954408;28;20070;-89
2021/09/12 11:28:29;;;;;;;9.30;2.80;;;;;;;;;;4953444;28;20107;-89
2021/09/12 11:31:02;;;;;;;7.45;2.00;;;;;;;;;;4956621;28;20048;-89
2021/09/12 11:33:47;;;;;;;8.77;2.50;;;;;;;;;;4982704;28;20046;-89
2021/09/12 11:36:14;;;;;;;5.03;1.57;;;;;;;;;;4977632;28;20031;-88
2021/09/12 11:38:43;;;;;;;7.32;1.98;;;;;;;;;;4973829;28;20043;-88
2021/09/12 11:41:11;;;;;;;6.93;1.70;;;;;;;;;;4973020;28;20037;-89
2021/09/12 11:43:38;;;;;;;7.47;2.85;;;;;;;;;;4985001;28;20049;-91
2021/09/12 11:46:11;;;;;;;5.70;1.73;;;;;;;;;;4973181;28;20046;-89
2021/09/12 11:48:57;;;;;;;6.43;2.38;;;;;;;;;;4977765;28;20547;-89
2021/09/12 11:51:36;;;;;;;7.65;3.30;;;;;;;;;;4985712;28;20042;-88
2021/09/12 11:54:09;;;;;;;7.05;1.80;;;;;;;;;;4990285;28;20052;-89
2021/09/12 11:56:40;;;;;;;6.85;1.70;;;;;;;;;;4985088;28;20062;-89
2021/09/12 11:59:11;;;;;;;7.22;3.58;;;;;;;;;;4982651;28;20086;-90
2021/09/12 12:01:50;;;;;;;7.35;1.95;;;;;;;;;;4983272;28;20018;-91
2021/09/12 12:04:19;;;;;;;7.20;2.03;;;;;;;;;;4972414;28;20042;-88
2021/09/12 12:06:49;;;;;;;4.97;1.70;;;;;;;;;;4969742;28;20034;-88
2021/09/12 12:09:31;;;;;;;4.22;1.60;;;;;;;;;;4972029;28;20033;-88
2021/09/12 12:12:16;;;;;;;6.72;1.60;;;;;;;;;;4963923;28;20042;-87
2021/09/12 12:14:51;;;;;;;7.05;1.80;;;;;;;;;;4958348;28;20065;-89
2021/09/12 12:17:46;;;;;;;5.00;1.60;;;;;;;;;;4952820;28;20087;-88
2021/09/12 12:20:16;;;;;;;5.82;1.63;;;;;;;;;;4937408;28;20845;-88
2021/09/12 12:22:44;;;;;;;5.75;1.52;;;;;;;;;;4913860;29;20721;-88
2021/09/12 12:25:12;;;;;;;5.97;1.95;;;;;;;;;;4911113;28;20749;-90
2021/09/12 12:27:41;;;;;;;6.93;2.05;;;;;;;;;;4912308;28;20028;-88
2021/09/12 12:30:10;;;;;;;7.53;1.90;;;;;;;;;;4909006;29;20046;-88
2021/09/12 12:33:04;;;;;;;6.47;1.75;;;;;;;;;;4912040;28;20044;-89
2021/09/12 12:35:33;;;;;;;5.82;1.80;;;;;;;;;;4915198;28;20071;-89
2021/09/12 12:38:02;;;;;;;6.75;2.65;;;;;;;;;;4914080;28;20043;-89
2021/09/12 12:40:33;;;;;;;6.45;1.63;;;;;;;;;;4919288;28;20079;-83
2021/09/12 12:43:04;;;;;;;6.10;1.70;;;;;;;;;;4897967;29;20293;-83
2021/09/12 12:45:36;;;;;;;5.03;1.48;;;;;;;;;;4892614;28;20046;-83
2021/09/12 12:48:15;;;;;;;7.30;1.85;;;;;;;;;;4914652;28;20390;-82
2021/09/12 12:50:42;;;;;;;6.40;1.73;;;;;;;;;;4901624;29;20309;-82
2021/09/12 12:53:13;;;;;;;4.88;1.52;;;;;;;;;;4886898;29;20305;-83
2021/09/12 12:55:41;;;;;;;6.05;1.70;;;;;;;;;;4898531;28;20035;-82
2021/09/12 12:58:15;;;;;;;6.35;2.00;;;;;;;;;;4900081;28;20055;-84
2021/09/12 13:00:43;;;;;;;6.03;1.70;;;;;;;;;;4895582;29;20043;-84
2021/09/12 13:03:13;;;;;;;6.57;1.73;;;;;;;;;;4897769;29;20520;-82
2021/09/12 13:06:06;;;;;;;5.55;1.70;;;;;;;;;;4941418;28;20761;-82
2021/09/12 13:08:36;;;;;;;5.10;1.50;;;;;;;;;;4943692;28;20042;-83
2021/09/12 13:11:04;;;;;;;5.45;1.63;;;;;;;;;;4954303;28;20037;-82
2021/09/12 13:13:31;;;;;;;7.40;1.90;;;;;;;;;;4940005;28;20050;-83
2021/09/12 13:16:01;;;;;;;6.28;1.52;;;;;;;;;;4903665;28;20047;-84
2021/09/12 13:18:29;;;;;;;4.80;1.70;;;;;;;;;;4950428;28;20157;-82
2021/09/12 13:20:55;;;;;;;6.30;1.63;;;;;;;;;;4961228;28;20501;-82
2021/09/12 13:23:28;;;;;;;5.60;1.70;;;;;;;;;;4940658;28;20043;-82
2021/09/12 13:25:57;;;;;;;5.38;1.70;;;;;;;;;;4964342;28;20034;-83
2021/09/12 13:28:25;;;;;;;4.80;1.63;;;;;;;;;;4971728;28;20676;-83
2021/09/12 13:30:52;;;;;;;5.88;1.60;;;;;;;;;;4946751;28;20133;-83
2021/09/12 13:33:19;;;;;;;6.97;1.90;;;;;;;;;;4944055;28;20066;-83
2021/09/12 13:35:48;;;;;;;5.47;1.83;;;;;;;;;;4926741;28;20088;-82
2021/09/12 13:38:17;;;;;;;6.97;1.90;;;;;;;;;;4944141;28;20103;-81
2021/09/12 13:40:46;;;;;;;5.95;1.70;;;;;;;;;;4963135;28;20077;-83
2021/09/12 13:43:12;;;;;;;5.30;1.85;;;;;;;;;;4917983;28;20046;-82
2021/09/12 13:45:45;;;;;;;5.90;1.80;;;;;;;;;;4962965;28;20059;-83
2021/09/12 13:48:14;;;;;;;5.07;1.80;;;;;;;;;;4959993;28;20069;-82
2021/09/12 13:50:42;;;;;;;7.15;2.10;;;;;;;;;;4956637;28;20047;-82
2021/09/12 13:53:10;;;;;;;5.25;1.70;;;;;;;;;;4959862;28;20081;-82
2021/09/12 13:55:38;;;;;;;5.55;1.88;;;;;;;;;;4955727;28;21004;-82
2021/09/12 13:58:06;;;;;;;6.88;1.73;;;;;;;;;;4979263;28;20038;-82
2021/09/12 14:00:38;;;;;;;5.82;1.80;;;;;;;;;;4976415;28;20109;-83
2021/09/12 14:03:09;;;;;;;4.22;1.52;;;;;;;;;;4975415;28;20105;-83
2021/09/12 14:05:36;;;;;;;5.05;1.48;;;;;;;;;;4976789;28;20037;-83
2021/09/12 14:08:05;;;;;;;4.88;1.60;;;;;;;;;;4980666;28;20049;-83
2021/09/12 14:10:33;;;;;;;6.63;1.45;;;;;;;;;;4958477;28;20407;-83
2021/09/12 14:13:01;;;;;;;3.90;1.33;;;;;;;;;;4980034;28;20498;-83
2021/09/12 14:15:39;;;;;;;5.60;1.40;;;;;;;;;;4978320;28;20439;-83
2021/09/12 14:18:07;;;;;;;5.88;1.45;;;;;;;;;;4975795;28;20045;-83
2021/09/12 14:20:34;;;;;;;4.15;1.40;;;;;;;;;;4944701;28;20185;-83
2021/09/12 14:23:04;;;;;;;5.53;1.33;;;;;;;;;;4969628;28;20088;-82
2021/09/12 14:25:30;;;;;;;4.97;1.42;;;;;;;;;;4965871;28;20138;-82
2021/09/12 14:27:59;;;;;;;5.85;2.08;;;;;;;;;;4976314;28;20030;-82
2021/09/12 14:30:26;;;;;;;5.15;1.50;;;;;;;;;;4971032;28;20074;-82
2021/09/12 14:32:58;;;;;;;3.65;1.10;;;;;;;;;;4956546;28;20081;-83
2021/09/12 14:35:29;;;;;;;5.55;1.60;;;;;;;;;;4971099;28;20092;-82
2021/09/12 14:37:56;;;;;;;5.30;1.52;;;;;;;;;;4970529;28;20047;-83
2021/09/12 14:40:25;;;;;;;4.60;1.50;;;;;;;;;;4953892;28;20088;-84
2021/09/12 14:42:52;;;;;;;5.43;1.20;;;;;;;;;;4964362;28;20039;-82
2021/09/12 14:45:21;;;;;;;4.13;1.20;;;;;;;;;;4953888;28;20045;-83
2021/09/12 14:47:56;;;;;;;3.60;1.20;;;;;;;;;;4961172;28;20054;-82
2021/09/12 14:50:28;;;;;;;3.78;1.20;;;;;;;;;;4973398;28;20039;-90
2021/09/12 14:53:00;;;;;;;3.97;1.17;;;;;;;;;;4986182;28;20034;-93
2021/09/12 14:55:31;;;;;;;4.60;1.27;;;;;;;;;;4993369;28;20571;-92
2021/09/12 14:58:03;;;;;;;3.78;1.10;;;;;;;;;;4999190;28;20045;-90